Time;durP1;ratioP1;P1;durP2;ratioP2;P2;SDS_P1;SDS_P2;PMS_P1;PMS_P2;Temp;Humidity;BMP_temperature;BMP_pressure;BME280_temperature;BME280_humidity;BME280_pressure;Samples;Min_cycle;Max_cycle;Signal;HPM_P1;HPM_P2
2020/12/07 00:00:27;;;;;;;9.77;5.70;;;;;;;-4.01;61.30;102324.27;1746239;80;21138;-39
2020/12/07 00:02:55;;;;;;;13.03;6.47;;;;;;;-4.02;61.27;102331.20;1738400;81;21197;-42
2020/12/07 00:05:23;;;;;;;10.83;6.20;;;;;;;-4.05;61.42;102332.84;1743446;82;21149;-41
2020/12/07 00:07:50;;;;;;;8.93;5.23;;;;;;;-4.06;61.34;102337.58;1739233;80;21154;-36
2020/12/07 00:10:20;;;;;;;10.37;5.27;;;;;;;-4.08;61.23;102337.55;1739559;81;21113;-39
2020/12/07 00:12:47;;;;;;;9.93;5.60;;;;;;;-4.14;61.25;102334.73;1740144;80;21195;-43
2020/12/07 00:15:15;;;;;;;10.00;6.50;;;;;;;-4.19;61.29;102335.88;1699306;83;21186;-36
2020/12/07 00:17:42;;;;;;;9.60;5.60;;;;;;;-4.22;61.35;102335.80;1738142;80;21913;-40
2020/12/07 00:20:11;;;;;;;10.00;5.77;;;;;;;-4.21;61.33;102336.67;1736541;80;21138;-43
2020/12/07 00:22:39;;;;;;;9.73;5.50;;;;;;;-4.20;61.33;102340.64;1737021;81;21867;-41
2020/12/07 00:25:06;;;;;;;10.30;5.57;;;;;;;-4.23;61.31;102340.98;1741924;80;21134;-38
2020/12/07 00:27:34;;;;;;;9.33;5.60;;;;;;;-4.27;61.34;102334.77;1736028;80;21142;-39
2020/12/07 00:30:04;;;;;;;7.60;4.97;;;;;;;-4.29;61.21;102331.22;1738563;81;21509;-38
2020/12/07 00:32:32;;;;;;;12.40;6.23;;;;;;;-4.29;61.23;102340.77;1737974;80;21186;-39
2020/12/07 00:35:00;;;;;;;11.77;6.07;;;;;;;-4.30;61.22;102333.38;1737676;81;21130;-38
2020/12/07 00:37:28;;;;;;;11.33;6.37;;;;;;;-4.32;61.14;102337.64;1735714;81;21558;-38
2020/12/07 00:39:55;;;;;;;14.40;6.37;;;;;;;-4.34;61.15;102331.49;1736705;80;21153;-42
2020/12/07 00:42:23;;;;;;;11.67;6.13;;;;;;;-4.38;61.08;102335.73;1741275;82;21138;-41
2020/12/07 00:44:51;;;;;;;13.20;6.93;;;;;;;-4.40;61.25;102336.52;1717704;81;21149;-38
2020/12/07 00:47:18;;;;;;;9.97;6.03;;;;;;;-4.40;61.20;102333.49;1710792;82;21142;-37
2020/12/07 00:49:46;;;;;;;10.73;6.97;;;;;;;-4.43;61.23;102341.22;1707636;82;21546;-41
2020/12/07 00:52:13;;;;;;;10.63;5.87;;;;;;;-4.45;61.02;102343.30;1712129;82;22511;-37
2020/12/07 00:54:41;;;;;;;10.33;6.40;;;;;;;-4.46;61.09;102337.61;1712526;82;21153;-38
2020/12/07 00:57:09;;;;;;;12.63;6.40;;;;;;;-4.49;61.05;102334.91;1688805;83;21178;-38
2020/12/07 00:59:38;;;;;;;9.90;5.37;;;;;;;-4.52;60.98;102334.39;1706758;82;21198;-39
2020/12/07 01:02:07;;;;;;;11.27;6.30;;;;;;;-4.54;61.04;102333.45;1711660;83;21178;-38
2020/12/07 01:04:35;;;;;;;11.70;6.07;;;;;;;-4.57;61.06;102338.14;1709036;82;21716;-42
2020/12/07 01:07:06;;;;;;;9.08;5.42;;;;;;;-4.59;61.20;102332.42;1709435;82;21153;-41
2020/12/07 01:09:33;;;;;;;11.80;6.83;;;;;;;-4.59;61.29;102328.13;1710696;83;21141;-42
2020/12/07 01:12:03;;;;;;;13.17;5.87;;;;;;;-4.58;61.20;102331.18;1709186;82;21130;-40
2020/12/07 01:14:32;;;;;;;10.23;5.77;;;;;;;-4.61;61.09;102332.39;1710700;82;21158;-42
2020/12/07 01:17:01;;;;;;;11.57;5.77;;;;;;;-4.64;61.08;102329.66;1707718;82;21696;-42
2020/12/07 01:19:30;;;;;;;11.67;6.03;;;;;;;-4.66;61.16;102322.23;1712223;82;21616;-40
2020/12/07 01:21:58;;;;;;;10.07;6.07;;;;;;;-4.67;61.04;102324.78;1711239;82;21881;-39
2020/12/07 01:24:26;;;;;;;10.80;5.77;;;;;;;-4.68;61.17;102321.30;1684511;83;21637;-41
2020/12/07 01:26:55;;;;;;;12.03;6.17;;;;;;;-4.68;61.02;102323.90;1712927;82;21159;-43
2020/12/07 01:29:23;;;;;;;10.27;6.13;;;;;;;-4.72;60.98;102322.02;1713879;82;21137;-39
2020/12/07 01:31:51;;;;;;;10.73;6.53;;;;;;;-4.74;60.97;102318.47;1712486;82;21154;-39
2020/12/07 01:34:19;;;;;;;12.27;6.80;;;;;;;-4.77;60.96;102319.67;1710346;82;21145;-37
2020/12/07 01:36:47;;;;;;;11.47;5.97;;;;;;;-4.81;61.16;102316.52;1716239;82;21584;-38
2020/12/07 01:39:14;;;;;;;11.03;7.07;;;;;;;-4.84;61.17;102324.20;1711845;83;21416;-37
2020/12/07 01:41:42;;;;;;;10.03;5.83;;;;;;;-4.84;61.15;102317.70;1715681;82;21129;-41
2020/12/07 01:44:11;;;;;;;12.03;6.13;;;;;;;-4.86;61.00;102319.39;1713517;82;21772;-40
2020/12/07 01:46:39;;;;;;;11.33;6.47;;;;;;;-4.90;60.94;102315.78;1733168;81;21581;-42
2020/12/07 01:49:06;;;;;;;11.87;6.43;;;;;;;-4.92;61.11;102316.56;1736667;82;21189;-36
2020/12/07 01:51:37;;;;;;;8.60;5.33;;;;;;;-4.96;61.09;102319.88;1741092;80;21146;-37
2020/12/07 01:54:06;;;;;;;15.53;6.30;;;;;;;-5.00;61.23;102320.20;1718547;80;22028;-39
2020/12/07 01:56:35;;;;;;;11.20;5.77;;;;;;;-5.02;61.22;102317.53;1716786;82;21577;-39
2020/12/07 01:59:04;;;;;;;11.80;7.20;;;;;;;-5.04;61.29;102319.23;1663692;84;21138;-39
2020/12/07 02:01:36;;;;;;;14.97;8.50;;;;;;;-5.06;61.26;102307.87;1739967;81;21745;-41
2020/12/07 02:04:04;;;;;;;12.23;6.45;;;;;;;-5.07;61.21;102314.31;1742428;80;21189;-39
2020/12/07 02:06:43;;;;;;;11.57;6.20;;;;;;;-5.08;61.33;102306.93;1741973;82;21377;-38
2020/12/07 02:09:26;;;;;;;12.70;6.73;;;;;;;-5.10;61.20;102303.81;1739618;80;21296;-41
2020/12/07 02:11:54;;;;;;;9.00;4.73;;;;;;;-5.13;61.19;102304.59;1694872;82;21138;-41
2020/12/07 02:14:22;;;;;;;11.90;6.10;;;;;;;-5.14;61.14;102301.92;1742960;81;21169;-41
2020/12/07 02:16:50;;;;;;;11.53;6.53;;;;;;;-5.15;61.05;102305.37;1681534;83;21141;-39
2020/12/07 02:19:18;;;;;;;10.10;5.77;;;;;;;-5.19;61.04;102308.30;1721918;81;21163;-38
2020/12/07 02:21:47;;;;;;;13.10;5.90;;;;;;;-5.24;61.01;102316.35;1742789;80;21134;-37
2020/12/07 02:24:43;;;;;;;11.43;6.03;;;;;;;-5.23;61.10;102313.78;1793716;78;23633;-38
2020/12/07 02:27:12;;;;;;;10.90;5.77;;;;;;;-5.28;60.95;102319.66;1765864;80;21132;-38
2020/12/07 02:29:40;;;;;;;9.73;6.37;;;;;;;-5.28;60.99;102317.06;1780626;79;21116;-37
2020/12/07 02:32:12;;;;;;;18.23;6.07;;;;;;;-5.26;61.03;102311.50;1787990;78;21300;-40
2020/12/07 02:34:42;;;;;;;12.47;5.93;;;;;;;-5.25;60.92;102317.16;1781833;78;21185;-44
2020/12/07 02:37:10;;;;;;;8.60;5.57;;;;;;;-5.24;60.82;102322.44;1769679;79;21157;-36
2020/12/07 02:39:39;;;;;;;11.47;5.90;;;;;;;-5.26;60.73;102317.59;1788465;79;21177;-36
2020/12/07 02:42:07;;;;;;;9.73;5.90;;;;;;;-5.29;60.67;102321.39;1780964;79;21149;-40
2020/12/07 02:44:36;;;;;;;12.37;6.00;;;;;;;-5.29;60.59;102314.88;1766265;80;21223;-38
2020/12/07 02:47:05;;;;;;;10.33;5.47;;;;;;;-5.27;60.38;102311.89;1765162;80;21738;-40
2020/12/07 02:49:33;;;;;;;10.80;5.63;;;;;;;-5.29;60.24;102309.68;1753363;79;21173;-42
2020/12/07 02:52:02;;;;;;;11.73;6.23;;;;;;;-5.35;60.20;102313.34;1738377;80;21168;-38
2020/12/07 02:54:31;;;;;;;9.13;5.50;;;;;;;-5.35;60.21;102318.97;1725217;80;21480;-40
2020/12/07 02:57:01;;;;;;;10.27;5.40;;;;;;;-5.36;60.21;102315.49;1732345;79;21129;-36
2020/12/07 02:59:29;;;;;;;12.47;5.83;;;;;;;-5.40;60.11;102317.50;1743161;79;21162;-40
2020/12/07 03:01:57;;;;;;;8.33;4.77;;;;;;;-5.46;60.12;102323.80;1736690;80;21729;-40
2020/12/07 03:04:25;;;;;;;10.37;5.17;;;;;;;-5.46;60.17;102325.97;1685593;83;21177;-39
2020/12/07 03:06:54;;;;;;;12.00;5.90;;;;;;;-5.45;60.23;102328.16;1700699;82;21175;-38
2020/12/07 03:09:22;;;;;;;10.07;5.57;;;;;;;-5.44;60.07;102326.92;1697074;81;21173;-39
2020/12/07 03:11:50;;;;;;;12.50;5.83;;;;;;;-5.44;60.12;102331.24;1705258;81;21166;-37
2020/12/07 03:14:18;;;;;;;10.83;5.53;;;;;;;-5.45;60.14;102335.53;1701479;81;21590;-37
2020/12/07 03:16:46;;;;;;;13.07;5.83;;;;;;;-5.43;60.11;102338.20;1714870;81;21150;-41
2020/12/07 03:19:14;;;;;;;10.63;5.83;;;;;;;-5.41;60.12;102335.67;1712939;81;21178;-40
2020/12/07 03:21:42;;;;;;;10.30;5.63;;;;;;;-5.43;59.97;102339.50;1706547;81;21218;-40
2020/12/07 03:24:11;;;;;;;14.20;6.13;;;;;;;-5.46;59.94;102339.40;1717823;81;21187;-42
2020/12/07 03:26:40;;;;;;;10.10;5.70;;;;;;;-5.47;59.79;102344.11;1716703;81;21158;-41
2020/12/07 03:29:09;;;;;;;10.53;5.57;;;;;;;-5.50;59.84;102337.08;1705927;81;21170;-40
2020/12/07 03:31:39;;;;;;;10.07;5.57;;;;;;;-5.51;59.95;102335.75;1704975;81;21407;-39
2020/12/07 03:34:08;;;;;;;10.83;5.80;;;;;;;-5.50;60.08;102333.60;1714288;81;21187;-36
2020/12/07 03:36:37;;;;;;;11.57;5.20;;;;;;;-5.50;59.99;102331.87;1709850;81;21161;-39
2020/12/07 03:39:05;;;;;;;11.10;6.67;;;;;;;-5.47;59.68;102329.42;1679173;82;21190;-39
2020/12/07 03:41:34;;;;;;;11.23;5.00;;;;;;;-5.52;59.76;102325.77;1673190;82;21173;-41
2020/12/07 03:44:02;;;;;;;9.13;5.30;;;;;;;-5.52;59.87;102328.37;1675268;82;21202;-39
2020/12/07 03:46:31;;;;;;;8.70;5.13;;;;;;;-5.52;59.88;102319.66;1698281;82;21197;-38
2020/12/07 03:49:00;;;;;;;10.27;5.20;;;;;;;-5.51;59.86;102321.44;1666389;83;21205;-38
2020/12/07 03:51:29;;;;;;;12.10;5.63;;;;;;;-5.52;59.79;102317.97;1695277;82;21757;-40
2020/12/07 03:53:57;;;;;;;11.23;6.00;;;;;;;-5.49;59.66;102314.17;1661959;83;21183;-38
2020/12/07 03:56:25;;;;;;;9.10;4.40;;;;;;;-5.50;59.64;102316.28;1699466;82;21226;-40
2020/12/07 03:58:53;;;;;;;11.17;5.80;;;;;;;-5.56;59.61;102318.67;1679057;82;21184;-41
2020/12/07 04:01:22;;;;;;;10.13;6.60;;;;;;;-5.59;59.61;102314.66;1685566;82;21212;-36
2020/12/07 04:03:55;;;;;;;10.07;6.40;;;;;;;-5.61;59.74;102318.92;1685647;82;21142;-39
2020/12/07 04:06:25;;;;;;;14.77;6.33;;;;;;;-5.61;59.66;102316.73;1681638;82;21172;-36
2020/12/07 04:08:50;;;;;;;11.87;5.50;;;;;;;-5.62;59.68;102324.05;1678933;82;21628;-42
2020/12/07 04:11:17;;;;;;;9.97;5.53;;;;;;;-5.65;59.72;102323.52;1695295;82;21740;-37
2020/12/07 04:13:45;;;;;;;9.63;5.13;;;;;;;-5.65;59.72;102327.42;1685961;82;21196;-39
2020/12/07 04:16:12;;;;;;;10.20;5.90;;;;;;;-5.64;59.79;102316.21;1676556;82;21209;-35
2020/12/07 04:18:40;;;;;;;10.67;5.73;;;;;;;-5.61;59.91;102320.64;1690738;83;21720;-42
2020/12/07 04:21:07;;;;;;;9.63;5.47;;;;;;;-5.60;59.93;102317.20;1707674;82;21723;-39
2020/12/07 04:23:35;;;;;;;10.40;5.50;;;;;;;-5.59;59.92;102318.56;1706079;82;21176;-38
2020/12/07 04:26:02;;;;;;;12.03;5.77;;;;;;;-5.56;59.84;102316.49;1713175;82;21213;-40
2020/12/07 04:28:30;;;;;;;15.23;6.03;;;;;;;-5.55;59.76;102317.83;1690818;83;21232;-40
2020/12/07 04:30:58;;;;;;;12.77;6.93;;;;;;;-5.56;59.59;102317.79;1693675;82;21201;-45
2020/12/07 04:33:26;;;;;;;11.40;4.93;;;;;;;-5.61;59.64;102320.22;1695267;83;21580;-37
2020/12/07 04:35:54;;;;;;;13.03;5.83;;;;;;;-5.61;59.68;102321.52;1692692;82;21188;-35
2020/12/07 04:38:22;;;;;;;9.23;6.17;;;;;;;-5.64;59.77;102322.71;1712693;82;21217;-39
2020/12/07 04:40:50;;;;;;;8.93;5.40;;;;;;;-5.65;59.81;102310.52;1711190;82;21125;-38
2020/12/07 04:43:18;;;;;;;8.23;4.67;;;;;;;-5.61;59.66;102311.12;1710290;82;21172;-37
2020/12/07 04:45:46;;;;;;;9.13;5.07;;;;;;;-5.60;59.62;102315.48;1687341;82;21193;-37
2020/12/07 04:48:13;;;;;;;10.00;4.67;;;;;;;-5.65;59.65;102313.12;1700381;82;21241;-38
2020/12/07 04:50:41;;;;;;;10.33;5.10;;;;;;;-5.70;59.76;102307.75;1690373;82;21205;-38
2020/12/07 04:53:09;;;;;;;9.27;5.37;;;;;;;-5.72;59.70;102311.12;1694204;83;21193;-39
2020/12/07 04:55:36;;;;;;;10.43;5.43;;;;;;;-5.74;59.83;102298.50;1697578;83;21198;-39
2020/12/07 04:58:03;;;;;;;10.13;5.53;;;;;;;-5.75;59.94;102303.21;1683825;84;21188;-40
2020/12/07 05:00:31;;;;;;;10.57;4.73;;;;;;;-5.77;59.86;102299.66;1705083;83;21188;-41
2020/12/07 05:02:59;;;;;;;10.20;4.57;;;;;;;-5.77;59.88;102302.27;1695920;82;21228;-41
2020/12/07 05:05:27;;;;;;;8.47;5.00;;;;;;;-5.78;59.87;102297.91;1691358;82;21126;-39
2020/12/07 05:07:55;;;;;;;9.63;4.97;;;;;;;-5.82;59.98;102290.81;1708987;82;21157;-40
2020/12/07 05:10:29;;;;;;;9.90;4.93;;;;;;;-5.83;59.92;102292.53;1693426;83;21218;-39
2020/12/07 05:12:59;;;;;;;9.73;5.07;;;;;;;-5.83;59.97;102286.45;1729043;81;21189;-40
2020/12/07 05:15:22;;;;;;;12.83;5.40;;;;;;;-5.83;59.95;102283.86;1711039;82;21153;-39
2020/12/07 05:17:51;;;;;;;9.57;5.07;;;;;;;-5.83;59.93;102280.84;1695031;83;21185;-40
2020/12/07 05:20:18;;;;;;;9.67;5.43;;;;;;;-5.87;59.88;102282.45;1678478;84;21190;-38
2020/12/07 05:22:46;;;;;;;11.53;5.20;;;;;;;-5.88;59.96;102282.38;1689119;83;21149;-36
2020/12/07 05:25:14;;;;;;;10.07;5.10;;;;;;;-5.89;60.05;102283.22;1687189;84;21488;-42
2020/12/07 05:27:44;;;;;;;10.07;5.43;;;;;;;-5.91;60.20;102283.16;1643493;84;21209;-35
2020/12/07 05:33:06;;;;;;;10.60;5.60;;;;;;;-5.89;60.47;102282.80;1792882;78;23112;-37
2020/12/07 05:35:39;;;;;;;13.60;6.77;;;;;;;-5.93;60.32;102286.52;1720679;80;21195;-38
2020/12/07 05:38:07;;;;;;;8.77;5.30;;;;;;;-5.93;60.41;102287.41;1765698;78;21878;-40
2020/12/07 05:40:34;;;;;;;8.90;4.57;;;;;;;-5.93;60.39;102287.82;1743239;80;21901;-38
2020/12/07 05:43:02;;;;;;;10.53;6.03;;;;;;;-5.92;60.45;102295.69;1784358;78;21668;-38
2020/12/07 05:45:30;;;;;;;12.70;6.43;;;;;;;-5.88;60.34;102299.27;1735722;80;21203;-38
2020/12/07 05:47:58;;;;;;;9.37;5.07;;;;;;;-5.88;60.36;102300.58;1774325;78;21154;-39
2020/12/07 05:50:28;;;;;;;10.08;5.35;;;;;;;-5.88;60.34;102296.67;1733111;81;21695;-41
2020/12/07 05:53:02;;;;;;;10.10;5.57;;;;;;;-5.90;60.38;102304.82;1747154;80;21653;-39
2020/12/07 05:55:30;;;;;;;10.57;5.23;;;;;;;-5.88;60.33;102308.37;1753897;79;21602;-40
2020/12/07 05:58:06;;;;;;;10.47;5.53;;;;;;;-5.91;60.55;102318.23;1763108;78;21313;-37
2020/12/07 06:00:35;;;;;;;8.50;5.70;;;;;;;-5.88;60.75;102307.07;1732356;80;21984;-36
2020/12/07 06:03:06;;;;;;;10.13;5.60;;;;;;;-5.84;60.79;102302.89;1731672;81;21751;-40
2020/12/07 06:05:34;;;;;;;11.00;5.30;;;;;;;-5.84;60.82;102305.49;1734224;80;21308;-42
2020/12/07 06:08:20;;;;;;;10.17;5.63;;;;;;;-5.83;60.74;102311.15;1735706;80;21166;-38
2020/12/07 06:10:58;;;;;;;11.70;5.90;;;;;;;-5.82;60.63;102305.11;1740096;81;21129;-40
2020/12/07 06:13:27;;;;;;;10.93;4.73;;;;;;;-5.81;60.61;102310.80;1753655;80;22019;-38
2020/12/07 06:15:55;;;;;;;11.77;5.70;;;;;;;-5.81;60.62;102313.39;1737596;80;21383;-41
2020/12/07 06:18:28;;;;;;;12.30;5.67;;;;;;;-5.81;60.59;102316.00;1709933;81;21185;-40
2020/12/07 06:21:05;;;;;;;9.07;4.67;;;;;;;-5.79;60.60;102316.95;1743941;80;21580;-37
2020/12/07 06:23:38;;;;;;;9.13;5.37;;;;;;;-5.75;60.41;102308.41;1723257;81;21652;-40
2020/12/07 06:26:07;;;;;;;9.57;5.30;;;;;;;-5.75;60.30;102305.81;1741074;81;21170;-38
2020/12/07 06:28:36;;;;;;;9.57;5.60;;;;;;;-5.78;60.40;102300.51;1747832;80;21132;-38
2020/12/07 06:31:10;;;;;;;8.97;5.77;;;;;;;-5.79;60.42;102306.12;1749724;80;21165;-39
2020/12/07 06:33:47;;;;;;;8.70;4.80;;;;;;;-5.76;60.34;102304.94;1759520;79;21119;-41
2020/12/07 06:36:32;;;;;;;11.03;5.20;;;;;;;-5.73;60.33;102298.97;1728586;81;21146;-39
2020/12/07 06:39:10;;;;;;;11.40;5.63;;;;;;;-5.73;60.45;102305.04;1730685;81;21751;-40
2020/12/07 06:41:47;;;;;;;10.20;5.70;;;;;;;-5.66;61.62;102299.66;1733671;81;21134;-40
2020/12/07 06:44:17;;;;;;;11.83;5.40;;;;;;;-5.54;60.87;102298.81;1750657;80;21485;-39
2020/12/07 06:49:49;;;;;;;16.70;7.20;;;;;;;-5.46;60.63;102304.29;1786237;78;20194;-41
2020/12/07 06:52:11;;;;;;;11.93;4.80;;;;;;;-5.39;60.37;102306.67;1730734;81;21180;-40
2020/12/07 06:57:42;;;;;;;13.37;6.87;;;;;;;-5.35;59.98;102296.44;1742579;80;21886;-42
2020/12/07 07:00:26;;;;;;;10.77;5.13;;;;;;;-5.32;59.98;102290.04;1752905;80;21561;-43
2020/12/07 07:03:01;;;;;;;9.77;5.37;;;;;;;-5.31;59.88;102294.85;1741361;80;21579;-41
2020/12/07 07:05:31;;;;;;;13.03;5.80;;;;;;;-5.30;59.85;102292.70;1742654;81;21157;-41
2020/12/07 07:07:59;;;;;;;9.27;5.93;;;;;;;-5.27;59.91;102298.89;1754908;80;21132;-39
2020/12/07 07:10:27;;;;;;;9.70;5.57;;;;;;;-5.28;59.77;102291.05;1728286;81;21148;-40
2020/12/07 07:12:54;;;;;;;9.13;4.90;;;;;;;-5.30;59.99;102294.00;1733650;81;21157;-38
2020/12/07 07:15:22;;;;;;;8.40;4.93;;;;;;;-5.29;59.96;102291.47;1747588;80;21659;-42
2020/12/07 07:17:50;;;;;;;9.47;4.90;;;;;;;-5.26;59.96;102298.08;1758324;79;21188;-42
2020/12/07 07:20:17;;;;;;;8.97;5.17;;;;;;;-5.22;59.82;102296.45;1740150;80;21186;-42
2020/12/07 07:22:48;;;;;;;8.23;5.40;;;;;;;-5.22;59.78;102290.86;1746466;80;21197;-39
2020/12/07 07:30:27;;;;;;;10.60;5.07;;;;;;;-5.15;59.75;102305.37;1757429;80;21188;-41
2020/12/07 07:32:56;;;;;;;9.60;5.67;;;;;;;-5.13;59.59;102301.98;1749684;80;21141;-39
2020/12/07 07:35:27;;;;;;;9.40;5.30;;;;;;;-5.12;59.64;102299.84;1765579;78;21202;-42
2020/12/07 07:37:55;;;;;;;12.73;6.33;;;;;;;-5.08;59.33;102300.84;1739908;81;21176;-39
2020/12/07 07:40:29;;;;;;;9.67;4.90;;;;;;;-5.07;59.38;102287.87;1741515;81;21577;-39
2020/12/07 07:43:11;;;;;;;9.57;5.73;;;;;;;-5.05;59.62;102288.81;1752969;79;21560;-41
2020/12/07 07:45:45;;;;;;;9.47;5.60;;;;;;;-4.98;59.38;102288.61;1748194;81;21172;-41
2020/12/07 07:48:20;;;;;;;11.53;6.77;;;;;;;-4.94;59.34;102280.48;1780080;78;21137;-40
2020/12/07 08:15:49;;;;;;;10.00;5.40;;;;;;;-4.55;58.04;102276.12;1704385;82;21169;-36
2020/12/07 08:18:19;;;;;;;8.97;4.53;;;;;;;-4.51;58.48;102274.06;1724540;81;21264;-42
2020/12/07 08:20:56;;;;;;;8.90;4.77;;;;;;;-4.44;58.44;102279.52;1670329;81;21144;-43
2020/12/07 08:23:30;;;;;;;9.90;5.87;;;;;;;-4.37;57.98;102277.57;1701709;82;21148;-39
2020/12/07 08:25:59;;;;;;;10.40;5.40;;;;;;;-4.36;57.56;102275.45;1709318;82;21127;-43
2020/12/07 08:28:38;;;;;;;10.93;5.40;;;;;;;-4.32;57.71;102272.94;1744301;81;21200;-40
2020/12/07 08:31:16;;;;;;;11.67;5.73;;;;;;;-4.29;57.60;102268.69;1710264;82;21145;-38
2020/12/07 08:33:58;;;;;;;10.00;5.33;;;;;;;-4.23;57.45;102271.50;1703653;83;21210;-40
2020/12/07 08:36:28;;;;;;;11.93;5.70;;;;;;;-4.15;57.33;102268.70;1704969;82;21156;-40
2020/12/07 08:38:56;;;;;;;10.23;5.50;;;;;;;-4.07;57.05;102255.02;1720074;82;21673;-41
2020/12/07 08:41:28;;;;;;;10.60;5.50;;;;;;;-4.01;57.02;102262.58;1711155;82;21196;-40
2020/12/07 08:44:02;;;;;;;9.80;5.43;;;;;;;-3.97;57.14;102251.84;1721530;82;21184;-40
2020/12/07 08:46:31;;;;;;;11.50;5.83;;;;;;;-3.89;57.09;102261.19;1714945;82;21208;-43
2020/12/07 08:49:00;;;;;;;9.43;4.50;;;;;;;-3.85;56.94;102256.11;1718213;82;21183;-39
2020/12/07 08:51:30;;;;;;;10.80;5.30;;;;;;;-3.81;56.54;102252.73;1718565;82;21148;-40
2020/12/07 08:53:59;;;;;;;7.43;5.57;;;;;;;-3.76;56.20;102249.83;1720142;81;21157;-40
2020/12/07 08:56:26;;;;;;;10.47;6.23;;;;;;;-3.76;56.35;102243.31;1685657;83;21190;-39
2020/12/07 08:58:54;;;;;;;9.53;5.27;;;;;;;-3.73;56.48;102253.85;1732251;81;21157;-40
2020/12/07 09:01:21;;;;;;;10.53;6.17;;;;;;;-3.67;56.05;102247.04;1715143;81;21216;-44
2020/12/07 09:03:49;;;;;;;9.17;5.33;;;;;;;-3.65;55.63;102235.81;1706778;83;21666;-44
2020/12/07 09:06:16;;;;;;;12.63;5.23;;;;;;;-3.62;55.77;102242.83;1707471;83;21204;-38
2020/12/07 09:08:44;;;;;;;10.97;5.57;;;;;;;-3.60;55.59;102238.12;1697331;83;21186;-41
2020/12/07 09:11:15;;;;;;;8.60;4.83;;;;;;;-3.57;55.34;102238.20;1690086;83;21712;-38
2020/12/07 09:13:43;;;;;;;10.15;6.10;;;;;;;-3.55;55.45;102244.77;1704152;83;21133;-36
2020/12/07 09:16:10;;;;;;;8.83;4.90;;;;;;;-3.49;55.38;102231.45;1714403;83;21160;-42
2020/12/07 09:18:38;;;;;;;8.67;5.07;;;;;;;-3.41;55.28;102233.39;1711641;83;21154;-42
2020/12/07 09:21:07;;;;;;;12.63;5.80;;;;;;;-3.35;55.42;102224.41;1701270;82;21167;-41
2020/12/07 09:23:35;;;;;;;8.20;4.87;;;;;;;-3.29;54.88;102214.14;1709202;83;21201;-44
2020/12/07 09:26:03;;;;;;;10.37;5.40;;;;;;;-3.26;54.75;102211.17;1743343;81;21165;-40
2020/12/07 09:28:32;;;;;;;8.70;5.03;;;;;;;-3.22;54.56;102207.37;1707260;82;21157;-45
2020/12/07 09:30:59;;;;;;;11.23;5.33;;;;;;;-3.21;54.77;102202.16;1711703;83;21134;-42
2020/12/07 09:33:27;;;;;;;9.97;5.90;;;;;;;-3.15;54.85;102225.83;1715746;82;21205;-40
2020/12/07 09:35:54;;;;;;;8.90;5.40;;;;;;;-3.13;54.77;102211.06;1713330;82;21648;-42
2020/12/07 09:38:22;;;;;;;10.17;5.63;;;;;;;-3.11;54.58;102203.28;1714045;82;21213;-41
2020/12/07 09:40:50;;;;;;;11.03;5.73;;;;;;;-3.05;54.22;102199.11;1714060;82;21257;-41
2020/12/07 09:43:17;;;;;;;10.60;6.03;;;;;;;-3.01;54.52;102202.66;1719436;81;21592;-41
2020/12/07 09:45:45;;;;;;;9.40;5.07;;;;;;;-2.96;54.39;102201.05;1720214;83;21174;-39
2020/12/07 09:48:13;;;;;;;14.03;6.30;;;;;;;-2.93;54.21;102199.80;1721740;82;21318;-41
2020/12/07 09:50:40;;;;;;;13.33;6.53;;;;;;;-2.87;54.30;102192.14;1719107;82;21166;-41
2020/12/07 09:53:11;;;;;;;11.23;5.73;;;;;;;-2.81;54.34;102193.13;1720204;82;21164;-44
2020/12/07 09:55:38;;;;;;;9.40;5.50;;;;;;;-2.75;54.04;102191.95;1718905;82;21149;-43
2020/12/07 09:58:05;;;;;;;8.47;5.00;;;;;;;-2.68;53.78;102184.29;1713282;82;21157;-43
2020/12/07 10:00:33;;;;;;;10.53;5.20;;;;;;;-2.61;53.69;102180.97;1710407;82;21241;-41
2020/12/07 10:03:00;;;;;;;11.43;6.40;;;;;;;-2.59;53.65;102175.80;1718744;82;21127;-37
2020/12/07 10:05:28;;;;;;;9.20;4.90;;;;;;;-2.55;53.87;102171.51;1726801;81;21164;-41
2020/12/07 10:07:56;;;;;;;10.43;5.67;;;;;;;-2.51;53.19;102168.13;1711463;82;21194;-39
2020/12/07 10:10:29;;;;;;;9.73;6.70;;;;;;;-2.51;53.10;102161.16;1712975;82;21192;-37
2020/12/07 10:12:59;;;;;;;10.30;5.67;;;;;;;-2.51;53.32;102158.55;1703659;83;21202;-37
2020/12/07 10:15:26;;;;;;;10.67;5.20;;;;;;;-2.52;53.34;102166.34;1720767;81;21651;-39
2020/12/07 10:17:54;;;;;;;10.50;6.30;;;;;;;-2.50;53.58;102165.95;1743208;81;21132;-41
2020/12/07 10:20:21;;;;;;;10.67;5.87;;;;;;;-2.45;53.31;102164.33;1749777;80;21149;-42
2020/12/07 10:22:49;;;;;;;9.83;5.43;;;;;;;-2.39;53.45;102159.25;1746448;80;21663;-42
2020/12/07 10:25:16;;;;;;;10.37;6.03;;;;;;;-2.32;53.49;102161.55;1749794;79;21138;-42
2020/12/07 10:27:44;;;;;;;11.40;6.00;;;;;;;-2.27;53.29;102166.45;1760720;79;21178;-40
2020/12/07 10:30:11;;;;;;;10.77;6.27;;;;;;;-2.22;53.19;102156.97;1754527;79;21228;-40
2020/12/07 10:32:39;;;;;;;10.63;5.10;;;;;;;-2.18;52.64;102145.73;1745900;79;21161;-41
2020/12/07 10:35:07;;;;;;;9.80;5.33;;;;;;;-2.16;52.27;102144.04;1748267;79;21178;-40
2020/12/07 10:37:34;;;;;;;13.90;6.03;;;;;;;-2.18;52.18;102143.99;1748745;81;21114;-38
2020/12/07 10:40:02;;;;;;;10.70;5.20;;;;;;;-2.17;52.02;102142.25;1738856;80;21170;-40
2020/12/07 10:42:29;;;;;;;10.57;5.43;;;;;;;-2.22;51.92;102136.96;1751190;80;21174;-40
2020/12/07 10:44:57;;;;;;;10.97;5.97;;;;;;;-2.23;52.07;102135.17;1740595;81;21206;-40
2020/12/07 10:47:25;;;;;;;9.33;6.53;;;;;;;-2.20;52.31;102133.05;1749364;81;21139;-39
2020/12/07 10:49:52;;;;;;;8.30;5.37;;;;;;;-2.18;52.16;102134.84;1716968;81;21161;-40
2020/12/07 10:52:23;;;;;;;9.10;5.63;;;;;;;-2.18;52.33;102132.66;1736728;80;21149;-38
2020/12/07 10:54:51;;;;;;;;;;;;;;;-2.18;52.23;102122.20;1749847;80;21185;-39
2020/12/07 10:57:18;;;;;;;10.10;5.47;;;;;;;-2.19;52.11;102129.61;1749076;80;20183;-41
2020/12/07 10:59:46;;;;;;;9.60;5.73;;;;;;;-2.21;51.72;102119.10;1718185;82;21162;-41
2020/12/07 11:02:14;;;;;;;8.37;5.27;;;;;;;-2.23;51.58;102123.41;1677814;84;21177;-42
2020/12/07 11:04:41;;;;;;;10.20;5.13;;;;;;;-2.24;51.84;102125.59;1749131;80;21122;-41
2020/12/07 11:07:13;;;;;;;9.33;5.17;;;;;;;-2.28;51.35;102122.88;1742809;80;21153;-40
2020/12/07 11:09:40;;;;;;;;;;;;;;;-2.37;51.54;102119.62;1750643;81;21217;-41
2020/12/07 11:12:16;;;;;;;10.53;5.00;;;;;;;-2.38;51.69;102118.31;1755727;80;20160;-42
2020/12/07 11:14:44;;;;;;;11.70;5.73;;;;;;;-2.36;51.88;102110.08;1739548;80;21156;-42
2020/12/07 11:17:12;;;;;;;9.90;5.23;;;;;;;-2.36;51.70;102112.70;1748279;80;21582;-40
2020/12/07 11:22:36;;;;;;;8.30;4.53;;;;;;;-2.40;51.86;102111.73;1799768;78;22968;-39
2020/12/07 11:25:03;;;;;;;9.43;4.83;;;;;;;-2.42;52.01;102109.11;1749638;79;21173;-42
2020/12/07 11:27:33;;;;;;;9.50;5.07;;;;;;;-2.44;51.71;102106.88;1734244;80;21168;-40
2020/12/07 11:30:00;;;;;;;10.17;5.80;;;;;;;-2.46;51.68;102103.78;1729894;81;21142;-42
2020/12/07 11:32:28;;;;;;;10.10;5.10;;;;;;;-2.47;51.82;102100.30;1732657;81;21191;-44
2020/12/07 11:34:57;;;;;;;8.97;4.83;;;;;;;-2.48;51.98;102098.94;1747727;80;21157;-40
2020/12/07 11:37:24;;;;;;;10.23;6.40;;;;;;;-2.46;52.48;102102.47;1728298;81;21157;-42
2020/12/07 11:40:07;;;;;;;7.57;5.03;;;;;;;-2.46;52.47;102101.17;1762553;80;21201;-39
2020/12/07 11:42:43;;;;;;;7.93;4.60;;;;;;;-2.42;52.23;102097.75;1768035;80;21162;-40
2020/12/07 11:45:06;;;;;;;10.93;5.17;;;;;;;-2.41;51.96;102103.02;1749290;80;21164;-41
2020/12/07 11:47:34;;;;;;;8.67;4.97;;;;;;;-2.40;54.05;102102.59;1753381;80;21161;-38
2020/12/07 11:50:02;;;;;;;9.60;4.93;;;;;;;-2.41;54.04;102103.02;1718676;81;21425;-38
2020/12/07 11:52:29;;;;;;;9.87;5.03;;;;;;;-2.42;53.32;102099.96;1714830;81;21191;-40
2020/12/07 11:54:57;;;;;;;11.73;5.53;;;;;;;-2.45;53.45;102101.61;1707223;81;21196;-43
2020/12/07 11:57:26;;;;;;;9.83;5.63;;;;;;;-2.46;53.73;102107.27;1709209;81;21334;-41
2020/12/07 11:59:54;;;;;;;10.47;4.80;;;;;;;-2.45;54.04;102093.77;1693269;83;21192;-46
2020/12/07 12:02:21;;;;;;;7.37;4.67;;;;;;;-2.43;53.66;102096.00;1715206;81;21347;-43
2020/12/07 12:04:49;;;;;;;10.03;5.13;;;;;;;-2.41;54.20;102103.02;1703257;81;21173;-40
2020/12/07 12:07:16;;;;;;;12.37;5.57;;;;;;;-2.38;53.97;102104.81;1748882;80;21584;-38
2020/12/07 12:09:46;;;;;;;9.33;5.40;;;;;;;-2.40;54.04;102095.63;1717843;81;21628;-42